Time;durP1;ratioP1;P1;durP2;ratioP2;P2;SDS_P1;SDS_P2;PMS_P1;PMS_P2;Temp;Humidity;BMP_temperature;BMP_pressure;BME280_temperature;BME280_humidity;BME280_pressure;Samples;Min_cycle;Max_cycle;Signal;HPM_P1;HPM_P2
2022/04/27 00:00:41;;;;;;;5.40;4.88;;;8.40;99.90;;;;;;5106143;28;20203;-70
2022/04/27 00:03:10;;;;;;;6.22;5.63;;;8.30;99.90;;;;;;5105066;28;20227;-71
2022/04/27 00:05:38;;;;;;;5.40;4.40;;;8.30;99.90;;;;;;5113591;28;20227;-69
2022/04/27 00:08:07;;;;;;;7.60;5.43;;;8.30;99.90;;;;;;5114764;28;20223;-71
2022/04/27 00:10:35;;;;;;;5.75;4.88;;;8.20;99.90;;;;;;5111705;28;20267;-69
2022/04/27 00:13:03;;;;;;;6.25;5.32;;;8.10;99.90;;;;;;5098689;28;20227;-69
2022/04/27 00:15:31;;;;;;;9.63;6.35;;;8.10;99.90;;;;;;5085387;28;20239;-71
2022/04/27 00:17:59;;;;;;;12.13;5.75;;;8.10;99.90;;;;;;5082305;28;20223;-70
2022/04/27 00:20:28;;;;;;;14.82;5.68;;;8.00;99.90;;;;;;5095600;28;20222;-70
2022/04/27 00:22:57;;;;;;;6.88;5.53;;;7.90;99.90;;;;;;5123128;28;20296;-70
2022/04/27 00:25:25;;;;;;;11.93;6.55;;;7.80;99.90;;;;;;5107874;28;20718;-71
2022/04/27 00:27:53;;;;;;;5.80;4.93;;;7.80;99.90;;;;;;5102213;28;20592;-70
2022/04/27 00:30:21;;;;;;;9.98;6.28;;;7.80;99.90;;;;;;5102010;28;20264;-71
2022/04/27 00:32:49;;;;;;;8.90;5.90;;;7.80;99.90;;;;;;5102550;28;20230;-69
2022/04/27 00:35:16;;;;;;;8.55;5.60;;;7.70;99.90;;;;;;5103172;28;20200;-72
2022/04/27 00:37:46;;;;;;;9.93;6.35;;;7.70;99.90;;;;;;5103509;28;20203;-71
2022/04/27 00:40:13;;;;;;;9.77;5.78;;;7.70;99.90;;;;;;5100919;28;20238;-71
2022/04/27 00:42:45;;;;;;;10.48;5.70;;;7.60;99.90;;;;;;5095257;28;20290;-70
2022/04/27 00:45:12;;;;;;;5.80;5.30;;;7.60;99.90;;;;;;5093778;28;20226;-69
2022/04/27 00:47:40;;;;;;;6.75;5.13;;;7.50;99.90;;;;;;5083231;28;20204;-69
2022/04/27 00:50:10;;;;;;;7.00;6.20;;;7.50;99.90;;;;;;5091276;28;20247;-69
2022/04/27 00:52:38;;;;;;;7.85;6.72;;;7.50;99.90;;;;;;5092271;28;20287;-67
2022/04/27 00:55:11;;;;;;;12.07;5.65;;;7.40;99.90;;;;;;5098464;28;20298;-67
2022/04/27 00:57:47;;;;;;;9.05;6.05;;;7.40;99.90;;;;;;5104583;28;20277;-67
2022/04/27 01:00:15;;;;;;;9.90;6.25;;;7.30;99.90;;;;;;5103785;28;20708;-67
2022/04/27 01:02:44;;;;;;;7.13;4.95;;;7.30;99.90;;;;;;5104521;28;20278;-67
2022/04/27 01:05:12;;;;;;;8.40;5.70;;;7.30;99.90;;;;;;5103983;28;20586;-68
2022/04/27 01:07:41;;;;;;;9.32;6.82;;;7.20;99.90;;;;;;5089456;28;20216;-69
2022/04/27 01:10:12;;;;;;;10.18;7.20;;;7.20;99.90;;;;;;5093579;28;20309;-66
2022/04/27 01:12:39;;;;;;;7.15;5.80;;;7.20;99.90;;;;;;5090351;28;20264;-68
2022/04/27 01:15:09;;;;;;;9.05;6.78;;;7.20;99.90;;;;;;5088967;28;20204;-73
2022/04/27 01:17:37;;;;;;;7.13;6.30;;;7.10;99.90;;;;;;5081659;28;20263;-72
2022/04/27 01:20:06;;;;;;;9.13;6.10;;;7.10;99.90;;;;;;5081959;28;20207;-69
2022/04/27 01:22:35;;;;;;;9.68;6.75;;;7.10;99.90;;;;;;5080895;28;20416;-71
2022/04/27 01:25:04;;;;;;;10.98;5.20;;;7.00;99.90;;;;;;5081595;28;20192;-68
2022/04/27 01:27:32;;;;;;;9.63;7.00;;;7.10;99.90;;;;;;5084981;28;20203;-69
2022/04/27 01:30:00;;;;;;;7.13;6.10;;;7.10;99.90;;;;;;5085408;28;20626;-71
2022/04/27 01:32:28;;;;;;;9.35;5.38;;;7.10;99.90;;;;;;5097127;28;20231;-69
2022/04/27 01:34:56;;;;;;;10.13;6.70;;;7.10;99.90;;;;;;5101197;28;20564;-71
2022/04/27 01:40:11;;;;;;;8.48;6.90;;;7.10;99.90;;;;;;5081467;28;20204;-69
2022/04/27 01:42:39;;;;;;;9.95;6.15;;;7.10;99.90;;;;;;5081789;28;20296;-70
2022/04/27 01:45:08;;;;;;;9.20;6.28;;;7.20;99.90;;;;;;5081083;28;20739;-71
2022/04/27 01:47:36;;;;;;;10.43;6.25;;;7.20;99.90;;;;;;5082758;28;20663;-70
2022/04/27 01:50:04;;;;;;;6.38;5.55;;;7.10;99.90;;;;;;5101298;28;20258;-69
2022/04/27 01:55:19;;;;;;;12.25;6.85;;;7.10;99.90;;;;;;5100514;28;20457;-72
2022/04/27 01:57:48;;;;;;;8.63;6.70;;;7.10;99.90;;;;;;5101147;28;20220;-71
2022/04/27 02:00:17;;;;;;;6.38;5.68;;;7.10;99.90;;;;;;5098366;28;20301;-70
2022/04/27 02:02:44;;;;;;;9.65;6.70;;;7.00;99.90;;;;;;5105204;28;20315;-71
2022/04/27 02:05:13;;;;;;;7.18;6.50;;;6.90;99.90;;;;;;5106324;28;20208;-70
2022/04/27 02:07:43;;;;;;;6.88;5.93;;;7.00;99.90;;;;;;5098954;28;20558;-70
2022/04/27 02:10:11;;;;;;;6.75;5.43;;;7.00;99.90;;;;;;5086763;28;20200;-70
2022/04/27 02:12:40;;;;;;;6.70;6.03;;;7.00;99.90;;;;;;5082255;28;20500;-70
2022/04/27 02:15:09;;;;;;;8.82;6.80;;;7.00;99.90;;;;;;5080381;28;20389;-72
2022/04/27 02:17:36;;;;;;;10.70;6.22;;;7.00;99.90;;;;;;5079981;28;20671;-71
2022/04/27 02:20:05;;;;;;;14.80;6.22;;;6.90;99.90;;;;;;5079584;28;20667;-71
2022/04/27 02:22:34;;;;;;;10.20;7.30;;;6.90;99.90;;;;;;5079583;28;20741;-71
2022/04/27 02:25:02;;;;;;;7.90;6.22;;;6.80;99.90;;;;;;5090300;28;20232;-70
2022/04/27 02:27:30;;;;;;;7.88;6.47;;;6.80;99.90;;;;;;5091677;28;20660;-71
2022/04/27 02:29:59;;;;;;;10.75;6.45;;;6.80;99.90;;;;;;5080311;28;20218;-71
2022/04/27 02:32:27;;;;;;;11.15;6.35;;;6.70;99.90;;;;;;5080574;28;20307;-71
2022/04/27 02:34:55;;;;;;;8.95;6.88;;;6.70;99.90;;;;;;5086309;28;20212;-68
2022/04/27 02:37:23;;;;;;;9.10;6.05;;;6.70;99.90;;;;;;5090133;28;20235;-69
2022/04/27 02:39:51;;;;;;;12.05;5.82;;;6.70;99.90;;;;;;5088950;28;20675;-69
2022/04/27 02:42:19;;;;;;;10.70;7.10;;;6.70;99.90;;;;;;5108283;28;20226;-71
2022/04/27 02:44:47;;;;;;;11.10;6.25;;;6.70;99.90;;;;;;5106254;28;20295;-68
2022/04/27 02:47:16;;;;;;;8.02;5.65;;;6.70;99.90;;;;;;5083527;28;20713;-71
2022/04/27 02:52:30;;;;;;;9.32;6.78;;;6.60;99.90;;;;;;5098865;28;20238;-71
2022/04/27 02:54:58;;;;;;;10.95;5.95;;;6.60;99.90;;;;;;5106384;28;20271;-71
2022/04/27 02:57:26;;;;;;;8.48;5.78;;;6.60;99.90;;;;;;5102160;28;20710;-73
2022/04/27 02:59:54;;;;;;;8.02;6.18;;;6.60;99.90;;;;;;5091062;28;20204;-71
2022/04/27 03:02:23;;;;;;;6.20;5.40;;;6.50;99.90;;;;;;5094591;28;20224;-73
2022/04/27 03:04:51;;;;;;;16.80;7.90;;;6.40;99.90;;;;;;5103742;28;20219;-71
2022/04/27 03:07:19;;;;;;;9.55;6.78;;;6.30;99.90;;;;;;5097859;28;20200;-71
2022/04/27 03:09:48;;;;;;;10.07;6.10;;;6.30;99.90;;;;;;5091956;28;20222;-72
2022/04/27 03:12:16;;;;;;;11.60;6.13;;;6.30;99.90;;;;;;5088172;28;20745;-70
2022/04/27 03:14:44;;;;;;;9.38;6.07;;;6.30;99.90;;;;;;5091452;28;20204;-72
2022/04/27 03:17:12;;;;;;;7.25;6.30;;;6.30;99.90;;;;;;5103263;28;20386;-72
2022/04/27 03:19:41;;;;;;;9.32;6.43;;;6.40;99.90;;;;;;5103908;28;20206;-72
2022/04/27 03:22:09;;;;;;;9.15;6.13;;;6.50;99.90;;;;;;5104029;28;20253;-71
2022/04/27 03:24:38;;;;;;;7.28;5.32;;;6.50;99.90;;;;;;5103834;28;20210;-71
2022/04/27 03:27:06;;;;;;;11.68;6.25;;;6.60;99.90;;;;;;5103955;28;20287;-71
2022/04/27 03:29:34;;;;;;;6.20;5.57;;;6.60;99.90;;;;;;5103669;28;20230;-71
2022/04/27 03:32:02;;;;;;;12.05;6.10;;;6.60;99.90;;;;;;5104582;28;20227;-70
2022/04/27 03:34:30;;;;;;;19.58;6.55;;;6.60;99.90;;;;;;5104060;28;20203;-71
2022/04/27 03:37:00;;;;;;;8.57;5.68;;;6.60;99.90;;;;;;5094662;28;20792;-71
2022/04/27 03:39:27;;;;;;;8.32;5.90;;;6.60;99.90;;;;;;5096189;28;20253;-71
2022/04/27 03:42:09;;;;;;;7.78;6.18;;;6.60;99.90;;;;;;5096059;28;20227;-71
2022/04/27 03:44:37;;;;;;;6.90;6.30;;;6.50;99.90;;;;;;5105365;28;20287;-71
2022/04/27 03:47:06;;;;;;;8.70;7.00;;;6.60;99.90;;;;;;5094175;28;20292;-71
2022/04/27 03:49:34;;;;;;;7.00;6.20;;;6.50;99.90;;;;;;5083027;28;20244;-71
2022/04/27 03:52:03;;;;;;;7.30;6.57;;;6.60;99.90;;;;;;5083392;28;20369;-70
2022/04/27 03:54:31;;;;;;;8.98;6.20;;;6.70;99.90;;;;;;5098044;28;20207;-70
2022/04/27 03:56:59;;;;;;;8.38;6.30;;;6.70;99.90;;;;;;5092383;28;20204;-70
2022/04/27 03:59:27;;;;;;;9.15;6.80;;;6.70;99.90;;;;;;5091673;28;20209;-71
2022/04/27 04:01:55;;;;;;;9.02;6.68;;;6.60;99.90;;;;;;5087926;28;20234;-72
2022/04/27 04:04:24;;;;;;;10.40;6.93;;;6.60;99.90;;;;;;5089612;28;20215;-70
2022/04/27 04:06:52;;;;;;;8.88;6.50;;;6.60;99.90;;;;;;5087469;28;20267;-69
2022/04/27 04:09:21;;;;;;;10.75;6.80;;;6.50;99.90;;;;;;5096792;28;20292;-69
2022/04/27 04:11:49;;;;;;;11.52;7.32;;;6.40;99.90;;;;;;5086476;28;20486;-73
2022/04/27 04:14:16;;;;;;;11.85;6.63;;;6.50;99.90;;;;;;5095377;28;20208;-73
2022/04/27 04:16:44;;;;;;;10.23;6.80;;;6.60;99.90;;;;;;5088030;28;20200;-70
2022/04/27 04:19:12;;;;;;;9.45;6.95;;;6.60;99.90;;;;;;5088895;28;20220;-74
2022/04/27 04:21:40;;;;;;;8.10;6.57;;;6.70;99.90;;;;;;5090342;28;20480;-71
2022/04/27 04:24:12;;;;;;;8.15;7.07;;;6.80;99.90;;;;;;5104301;27;20709;-72
2022/04/27 04:29:27;;;;;;;10.77;6.88;;;6.80;99.90;;;;;;5110441;27;20252;-73
2022/04/27 04:31:54;;;;;;;8.13;6.45;;;6.90;99.90;;;;;;5102975;27;20312;-69
2022/04/27 04:34:22;;;;;;;12.18;6.47;;;6.90;99.90;;;;;;5102062;27;20233;-73
2022/04/27 04:36:50;;;;;;;12.07;6.45;;;7.00;99.90;;;;;;5112877;27;20214;-73
2022/04/27 04:39:18;;;;;;;6.28;5.60;;;7.10;99.90;;;;;;5102052;28;20224;-74
2022/04/27 04:41:50;;;;;;;9.18;6.93;;;7.20;99.90;;;;;;5103448;28;20271;-73
2022/04/27 04:44:18;;;;;;;7.90;5.93;;;7.20;99.90;;;;;;5122383;28;20204;-73
2022/04/27 04:46:46;;;;;;;11.43;7.45;;;7.30;99.90;;;;;;5103448;28;20291;-71
2022/04/27 04:49:14;;;;;;;9.50;6.75;;;7.30;99.90;;;;;;5100097;28;20211;-73
2022/04/27 04:51:42;;;;;;;14.27;5.82;;;7.30;99.90;;;;;;5100741;28;20654;-72
2022/04/27 04:54:09;;;;;;;9.63;6.90;;;7.30;99.90;;;;;;5101570;27;20521;-70
2022/04/27 04:56:37;;;;;;;10.57;6.10;;;7.30;99.90;;;;;;5110951;27;20701;-69
2022/04/27 04:59:06;;;;;;;9.70;6.07;;;7.30;99.90;;;;;;5120712;27;20233;-67
2022/04/27 05:01:34;;;;;;;7.80;6.55;;;7.40;99.90;;;;;;5107986;27;20615;-69
2022/04/27 05:04:03;;;;;;;7.78;6.10;;;7.40;99.90;;;;;;5101030;28;20771;-69
2022/04/27 05:06:35;;;;;;;10.65;6.47;;;7.30;99.90;;;;;;5103723;27;20210;-70
2022/04/27 05:09:04;;;;;;;7.03;6.35;;;7.30;99.90;;;;;;5107609;27;20202;-69
2022/04/27 05:11:32;;;;;;;10.10;6.72;;;7.30;99.90;;;;;;5091968;28;20212;-69
2022/04/27 05:14:01;;;;;;;6.10;5.53;;;7.30;99.90;;;;;;5090697;28;20211;-68
2022/04/27 05:16:32;;;;;;;8.90;6.63;;;7.30;99.90;;;;;;5091390;27;20386;-74
2022/04/27 05:19:05;;;;;;;10.50;6.40;;;7.30;99.90;;;;;;5099285;27;20737;-70
2022/04/27 05:21:34;;;;;;;12.13;7.25;;;7.40;99.90;;;;;;5097727;28;20306;-73
2022/04/27 05:24:03;;;;;;;9.02;5.50;;;7.30;99.90;;;;;;5108153;27;20236;-75
2022/04/27 05:26:31;;;;;;;10.68;6.95;;;7.30;99.90;;;;;;5097159;28;20428;-73
2022/04/27 05:31:58;;;;;;;10.25;5.15;;;7.40;99.90;;;;;;5101607;28;20229;-72
2022/04/27 05:34:30;;;;;;;6.90;5.68;;;7.50;99.90;;;;;;5102147;28;20278;-71
2022/04/27 05:36:58;;;;;;;7.85;5.90;;;7.60;99.90;;;;;;5099415;28;20257;-72
2022/04/27 05:39:26;;;;;;;8.98;8.07;;;7.70;99.90;;;;;;5099284;28;20272;-72
2022/04/27 05:41:54;;;;;;;6.22;5.30;;;7.70;99.90;;;;;;5101606;28;20215;-71
2022/04/27 05:44:25;;;;;;;8.00;5.97;;;7.80;99.90;;;;;;5100929;28;20203;-72
2022/04/27 05:46:56;;;;;;;9.27;6.47;;;7.80;99.90;;;;;;5102413;28;20247;-71
2022/04/27 05:49:24;;;;;;;10.35;6.82;;;7.70;99.90;;;;;;5101936;28;20212;-71
2022/04/27 05:51:52;;;;;;;11.38;6.82;;;7.70;99.90;;;;;;5101931;28;20718;-71
2022/04/27 05:54:20;;;;;;;10.80;6.40;;;7.80;99.90;;;;;;5103598;28;20206;-71
2022/04/27 05:56:47;;;;;;;6.63;5.90;;;7.90;99.90;;;;;;5102225;28;20196;-73
2022/04/27 05:59:17;;;;;;;12.00;7.28;;;8.20;99.90;;;;;;5102243;28;20230;-72
2022/04/27 06:01:45;;;;;;;12.48;8.15;;;8.30;99.90;;;;;;5102495;28;20284;-72
2022/04/27 06:04:20;;;;;;;8.38;5.80;;;8.60;99.90;;;;;;5102733;28;20195;-71
2022/04/27 06:06:48;;;;;;;13.57;6.05;;;8.90;99.90;;;;;;5103130;28;20180;-73
2022/04/27 06:09:16;;;;;;;9.32;5.60;;;9.00;99.90;;;;;;5106606;28;20678;-72
2022/04/27 06:11:44;;;;;;;9.27;5.35;;;9.10;99.90;;;;;;5116974;28;20306;-72
2022/04/27 06:14:12;;;;;;;14.10;6.10;;;9.20;99.90;;;;;;5122420;27;20813;-72
2022/04/27 06:16:42;;;;;;;5.60;4.97;;;9.30;99.90;;;;;;5092771;28;20306;-73
2022/04/27 06:19:11;;;;;;;7.82;5.53;;;9.40;99.90;;;;;;5091144;28;20239;-72
2022/04/27 06:21:41;;;;;;;11.90;6.18;;;9.50;99.90;;;;;;5087466;28;20212;-72
2022/04/27 06:24:09;;;;;;;5.57;5.03;;;9.70;99.90;;;;;;5089834;28;20317;-72
2022/04/27 06:26:37;;;;;;;7.13;5.30;;;9.80;99.90;;;;;;5086727;28;20565;-72
2022/04/27 06:29:06;;;;;;;10.90;5.40;;;9.90;99.90;;;;;;5090880;28;20195;-72
2022/04/27 06:31:34;;;;;;;13.25;6.50;;;9.90;99.90;;;;;;5094148;28;20230;-74
2022/04/27 06:34:01;;;;;;;6.82;4.93;;;10.00;99.90;;;;;;5093809;28;20192;-72
2022/04/27 06:36:30;;;;;;;12.10;5.28;;;10.00;99.90;;;;;;5094195;28;20214;-73
2022/04/27 06:39:00;;;;;;;17.23;10.13;;;10.10;99.90;;;;;;5089826;28;20266;-71
2022/04/27 06:41:28;;;;;;;7.90;4.95;;;10.20;99.90;;;;;;5100434;28;20428;-70
2022/04/27 06:43:56;;;;;;;6.70;4.32;;;10.20;99.90;;;;;;5096845;28;20204;-70
2022/04/27 06:46:24;;;;;;;5.53;4.75;;;10.20;99.90;;;;;;5104411;27;20691;-72
2022/04/27 06:48:52;;;;;;;5.90;4.18;;;10.30;99.90;;;;;;5106722;27;20796;-72
2022/04/27 06:51:20;;;;;;;3.80;3.50;;;10.30;99.90;;;;;;5112738;28;20219;-71
2022/04/27 06:53:49;;;;;;;5.25;3.38;;;10.30;99.90;;;;;;5104458;27;20285;-71
2022/04/27 06:56:18;;;;;;;11.82;4.68;;;10.40;99.90;;;;;;5094130;28;20548;-73
2022/04/27 06:58:46;;;;;;;4.50;2.90;;;10.50;99.90;;;;;;5097221;28;20276;-71
2022/04/27 07:01:14;;;;;;;3.70;3.40;;;10.60;99.90;;;;;;5104824;28;20219;-71
2022/04/27 07:03:43;;;;;;;3.67;3.35;;;10.70;99.90;;;;;;5100682;28;20409;-71
2022/04/27 07:06:11;;;;;;;8.38;3.28;;;10.80;99.90;;;;;;5100423;28;20218;-70
2022/04/27 07:08:39;;;;;;;5.07;3.47;;;10.80;99.90;;;;;;5100880;28;20199;-70
2022/04/27 07:11:07;;;;;;;5.77;3.37;;;10.80;99.90;;;;;;5101631;28;20461;-73
2022/04/27 07:13:36;;;;;;;7.28;3.50;;;10.80;99.90;;;;;;5101610;28;20813;-71
2022/04/27 07:16:05;;;;;;;9.53;3.73;;;11.00;99.90;;;;;;5100586;28;20265;-71
2022/04/27 07:18:33;;;;;;;6.78;4.10;;;11.10;99.90;;;;;;5100626;28;20960;-71
2022/04/27 07:21:05;;;;;;;6.90;4.10;;;11.30;99.90;;;;;;5104012;28;20711;-71
2022/04/27 07:23:38;;;;;;;6.57;4.25;;;11.30;99.90;;;;;;5098879;28;21024;-70
2022/04/27 07:26:07;;;;;;;4.20;3.83;;;11.40;99.90;;;;;;5100043;28;20235;-70
2022/04/27 07:28:37;;;;;;;5.65;4.35;;;11.30;99.90;;;;;;5102554;28;20955;-70
2022/04/27 07:31:04;;;;;;;5.77;3.63;;;11.30;99.90;;;;;;5102364;27;20315;-70
2022/04/27 07:33:34;;;;;;;7.07;3.60;;;11.30;99.90;;;;;;5109351;27;20480;-70
2022/04/27 07:36:02;;;;;;;6.10;4.00;;;11.40;99.90;;;;;;5119266;27;20877;-74
2022/04/27 07:38:30;;;;;;;7.53;3.28;;;11.30;99.90;;;;;;5102765;27;20252;-73
2022/04/27 07:40:58;;;;;;;9.13;4.50;;;11.30;99.90;;;;;;5100200;27;20310;-75
2022/04/27 07:43:28;;;;;;;4.27;3.73;;;11.30;99.90;;;;;;5093028;28;20196;-75
2022/04/27 07:45:57;;;;;;;4.10;3.80;;;11.40;99.90;;;;;;5093875;28;21008;-75
2022/04/27 07:48:25;;;;;;;5.27;3.67;;;11.30;99.90;;;;;;5097179;28;20647;-76
2022/04/27 07:50:53;;;;;;;7.53;4.00;;;11.30;99.90;;;;;;5095476;28;20464;-75
2022/04/27 07:53:21;;;;;;;6.83;4.07;;;11.30;99.90;;;;;;5095568;27;20200;-78
2022/04/27 07:55:49;;;;;;;4.68;3.63;;;11.30;99.90;;;;;;5099189;27;20469;-74
2022/04/27 07:58:17;;;;;;;7.47;4.45;;;11.30;99.90;;;;;;5093313;28;20675;-76
2022/04/27 08:00:45;;;;;;;5.03;4.40;;;11.40;99.90;;;;;;5096867;28;20627;-73
2022/04/27 08:03:14;;;;;;;8.23;3.92;;;11.30;99.90;;;;;;5092617;28;20667;-72
2022/04/27 08:05:42;;;;;;;4.50;3.33;;;11.40;99.90;;;;;;5094372;28;20198;-71
2022/04/27 08:08:10;;;;;;;4.22;3.83;;;11.40;99.90;;;;;;5095284;27;20552;-74
2022/04/27 08:10:41;;;;;;;6.77;4.40;;;11.40;99.90;;;;;;5097514;28;20667;-72
2022/04/27 08:13:09;;;;;;;6.67;3.90;;;11.40;99.90;;;;;;5114819;27;20450;-72
2022/04/27 08:15:37;;;;;;;8.80;3.60;;;11.50;99.90;;;;;;5113418;27;20459;-72
2022/04/27 08:18:07;;;;;;;6.67;3.73;;;11.70;99.90;;;;;;5092574;28;20855;-73
2022/04/27 08:23:24;;;;;;;4.30;3.53;;;11.90;99.90;;;;;;5103117;28;20486;-72
2022/04/27 08:25:53;;;;;;;3.97;3.50;;;12.00;99.90;;;;;;5103445;28;20709;-70
2022/04/27 08:28:21;;;;;;;5.33;3.77;;;12.10;99.90;;;;;;5107473;27;20441;-74
2022/04/27 08:30:50;;;;;;;7.30;4.10;;;12.20;99.90;;;;;;5108505;27;20472;-73
2022/04/27 08:33:19;;;;;;;9.00;4.53;;;12.30;99.90;;;;;;5104620;27;20521;-72
2022/04/27 08:35:54;;;;;;;4.97;4.47;;;12.50;99.90;;;;;;5103258;27;20494;-75
2022/04/27 08:38:42;;;;;;;4.83;4.43;;;12.50;99.90;;;;;;5098612;27;20441;-75
2022/04/27 08:41:10;;;;;;;6.83;4.60;;;12.60;99.90;;;;;;5107643;27;20482;-73
2022/04/27 08:43:38;;;;;;;4.50;4.13;;;12.50;99.90;;;;;;5114835;27;20449;-78
2022/04/27 08:46:06;;;;;;;6.53;5.93;;;12.50;99.90;;;;;;5104868;28;20453;-70
2022/04/27 08:48:34;;;;;;;8.27;5.03;;;12.40;99.90;;;;;;5104677;27;20454;-70
2022/04/27 08:51:05;;;;;;;5.80;4.47;;;12.30;99.90;;;;;;5124053;27;20472;-76
2022/04/27 08:53:33;;;;;;;5.80;4.00;;;12.30;99.90;;;;;;5122133;27;20470;-74
2022/04/27 08:56:01;;;;;;;6.97;5.13;;;12.30;99.90;;;;;;5104161;28;20449;-71
2022/04/27 08:58:30;;;;;;;9.13;5.30;;;12.40;99.90;;;;;;5104604;27;20549;-74
2022/04/27 09:01:09;;;;;;;6.03;4.70;;;12.40;99.90;;;;;;5104722;28;20504;-75
2022/04/27 09:03:38;;;;;;;6.20;5.27;;;12.50;99.90;;;;;;5112759;27;20506;-75
2022/04/27 09:06:10;;;;;;;6.37;5.60;;;12.40;99.90;;;;;;5110009;27;20444;-74
2022/04/27 09:08:40;;;;;;;4.93;4.47;;;12.40;99.90;;;;;;5114810;27;20497;-74
2022/04/27 09:11:16;;;;;;;10.83;5.30;;;12.30;99.90;;;;;;5115619;27;20983;-78
2022/04/27 09:13:49;;;;;;;6.53;3.80;;;12.20;99.90;;;;;;5126779;27;20424;-77
2022/04/27 09:16:18;;;;;;;9.40;4.20;;;12.10;99.90;;;;;;5132359;27;20942;-77
2022/04/27 09:21:59;;;;;;;4.20;3.80;;;12.10;99.90;;;;;;5035737;28;20800;-73
2022/04/27 09:24:29;;;;;;;6.60;4.00;;;12.00;99.90;;;;;;5108949;27;20796;-72
2022/04/27 09:27:03;;;;;;;4.10;3.70;;;12.00;99.90;;;;;;5108867;27;20695;-71
2022/04/27 09:29:32;;;;;;;4.83;4.23;;;12.10;99.90;;;;;;5123469;27;20486;-71
2022/04/27 09:32:01;;;;;;;4.53;3.30;;;12.20;99.90;;;;;;5121494;27;20601;-71
2022/04/27 09:34:29;;;;;;;8.30;3.93;;;12.20;99.90;;;;;;5127685;27;20466;-71
2022/04/27 09:37:02;;;;;;;4.97;3.70;;;12.30;99.90;;;;;;5133521;27;20458;-77
2022/04/27 09:39:34;;;;;;;3.87;3.53;;;12.30;99.90;;;;;;5111619;28;20491;-72
2022/04/27 09:42:05;;;;;;;5.77;3.70;;;12.40;99.90;;;;;;5111107;28;20461;-71
2022/04/27 09:44:35;;;;;;;3.90;3.50;;;12.50;99.90;;;;;;5092976;28;20510;-72
2022/04/27 09:47:04;;;;;;;6.37;3.80;;;12.60;99.90;;;;;;5093281;28;20997;-73
2022/04/27 09:49:32;;;;;;;6.67;3.63;;;12.60;99.90;;;;;;5090898;28;20488;-71
2022/04/27 09:52:02;;;;;;;6.23;4.57;;;12.80;99.90;;;;;;5091720;28;20456;-71
2022/04/27 09:54:34;;;;;;;5.90;4.70;;;12.80;99.90;;;;;;5101891;27;20737;-72
2022/04/27 09:57:03;;;;;;;9.20;4.60;;;12.90;99.90;;;;;;5095375;28;20536;-72
2022/04/27 09:59:34;;;;;;;7.33;4.10;;;13.00;99.90;;;;;;5099673;27;20679;-72
2022/04/27 10:02:07;;;;;;;6.17;4.47;;;13.00;99.90;;;;;;5095395;27;20481;-72
2022/04/27 10:04:37;;;;;;;4.40;4.10;;;13.00;99.90;;;;;;5095291;27;20837;-74
2022/04/27 10:07:10;;;;;;;4.10;3.80;;;13.10;99.90;;;;;;5100303;27;20452;-76
2022/04/27 10:09:38;;;;;;;5.80;4.00;;;13.10;99.90;;;;;;5098298;28;20441;-78
2022/04/27 10:12:13;;;;;;;4.93;4.40;;;13.30;99.90;;;;;;5100620;28;20461;-73
2022/04/27 10:14:41;;;;;;;4.97;4.47;;;13.40;99.90;;;;;;5094121;28;20448;-72
2022/04/27 10:17:10;;;;;;;10.10;5.13;;;13.50;99.90;;;;;;5101419;28;20710;-73
2022/04/27 10:19:44;;;;;;;8.43;4.83;;;13.60;99.90;;;;;;5112641;28;20537;-74
2022/04/27 10:22:27;;;;;;;7.30;4.40;;;13.80;99.90;;;;;;5103595;28;21002;-74
2022/04/27 10:24:56;;;;;;;8.43;4.67;;;14.20;99.90;;;;;;5114851;28;20464;-73
2022/04/27 10:27:26;;;;;;;4.73;4.30;;;14.50;99.90;;;;;;5120852;27;20504;-72
2022/04/27 10:29:59;;;;;;;5.53;4.97;;;14.70;99.90;;;;;;5117819;27;20445;-74
2022/04/27 10:32:39;;;;;;;6.63;4.97;;;14.90;99.90;;;;;;5101310;28;20868;-75
2022/04/27 10:35:33;;;;;;;5.07;4.67;;;15.00;99.90;;;;;;5101249;28;20434;-73
2022/04/27 10:38:05;;;;;;;7.47;4.00;;;15.00;99.90;;;;;;5082693;28;20465;-72
2022/04/27 10:40:34;;;;;;;5.83;4.50;;;14.90;99.90;;;;;;5100417;28;20719;-72
2022/04/27 10:43:10;;;;;;;6.00;4.00;;;14.70;99.90;;;;;;5094450;28;20870;-76
2022/04/27 10:45:39;;;;;;;4.30;4.10;;;14.50;99.90;;;;;;5092720;28;20552;-71
2022/04/27 10:48:08;;;;;;;5.57;4.40;;;14.30;99.90;;;;;;5100372;28;20453;-74
2022/04/27 10:50:37;;;;;;;7.03;4.73;;;14.30;99.90;;;;;;5101797;28;20445;-74
2022/04/27 10:53:25;;;;;;;4.80;3.87;;;14.30;99.90;;;;;;5094233;28;20961;-73
2022/04/27 10:55:59;;;;;;;11.20;5.13;;;14.40;99.90;;;;;;5090713;28;20441;-76
2022/04/27 10:58:42;;;;;;;4.60;4.20;;;14.40;99.90;;;;;;5094018;28;21097;-78
2022/04/27 11:01:23;;;;;;;4.27;3.97;;;14.30;99.90;;;;;;5099322;27;20485;-77
2022/04/27 11:04:07;;;;;;;4.37;3.97;;;14.40;99.90;;;;;;5108364;27;20457;-79
2022/04/27 11:07:11;;;;;;;5.70;4.70;;;14.50;99.90;;;;;;5095193;28;21028;-77
2022/04/27 11:10:21;;;;;;;4.47;4.07;;;14.60;99.90;;;;;;5097928;27;20445;-76
2022/04/27 11:12:49;;;;;;;6.43;4.63;;;14.70;99.90;;;;;;5119125;27;20564;-74
2022/04/27 11:15:21;;;;;;;4.93;4.53;;;14.70;99.90;;;;;;5127413;27;20436;-78
2022/04/27 11:17:55;;;;;;;4.83;4.37;;;14.60;99.90;;;;;;5118918;27;20519;-76
2022/04/27 11:20:28;;;;;;;5.50;5.00;;;14.60;99.90;;;;;;5106930;27;20731;-79
2022/04/27 11:22:57;;;;;;;4.53;4.23;;;14.70;99.90;;;;;;5120085;27;20476;-75
2022/04/27 11:25:29;;;;;;;3.53;3.33;;;14.90;99.90;;;;;;5123417;27;20447;-73
2022/04/27 11:27:57;;;;;;;6.77;4.00;;;15.20;99.90;;;;;;5119085;27;20440;-73
2022/04/27 11:30:26;;;;;;;4.70;3.90;;;15.50;99.30;;;;;;5126022;27;20570;-72
2022/04/27 11:32:54;;;;;;;4.97;3.87;;;15.70;99.20;;;;;;5112236;27;20500;-72
2022/04/27 11:35:24;;;;;;;6.20;3.47;;;15.90;99.00;;;;;;5109994;28;20473;-72
2022/04/27 11:37:54;;;;;;;3.97;3.60;;;16.10;98.90;;;;;;5114434;27;20722;-75
2022/04/27 11:40:25;;;;;;;7.07;4.23;;;16.20;98.60;;;;;;5119381;27;20451;-74
2022/04/27 11:43:00;;;;;;;3.93;3.57;;;16.30;98.60;;;;;;5124683;27;20575;-74
2022/04/27 11:45:29;;;;;;;4.50;3.77;;;16.40;98.50;;;;;;5113199;27;20469;-71
2022/04/27 11:47:58;;;;;;;4.20;3.80;;;16.50;97.90;;;;;;5113275;27;20460;-75
2022/04/27 11:50:27;;;;;;;4.07;3.77;;;16.40;97.70;;;;;;5105902;27;20461;-75
2022/04/27 11:53:03;;;;;;;4.40;4.00;;;16.30;97.50;;;;;;5103485;28;20807;-74
2022/04/27 11:55:33;;;;;;;4.30;4.00;;;16.20;97.30;;;;;;5101734;28;20693;-75
2022/04/27 11:58:04;;;;;;;4.73;3.63;;;16.10;97.90;;;;;;5103192;28;20724;-74
2022/04/27 12:00:34;;;;;;;3.97;3.50;;;15.90;97.70;;;;;;5104116;28;20480;-73
2022/04/27 12:03:04;;;;;;;3.80;3.50;;;15.70;97.40;;;;;;5103359;28;20547;-74
2022/04/27 12:05:34;;;;;;;4.60;4.20;;;15.50;97.20;;;;;;5103915;28;20754;-74
2022/04/27 12:08:03;;;;;;;5.67;4.33;;;15.30;97.30;;;;;;5104796;28;20548;-73
2022/04/27 12:10:39;;;;;;;3.93;3.57;;;15.10;97.80;;;;;;5106777;28;20447;-73
2022/04/27 12:13:09;;;;;;;5.10;3.83;;;15.00;98.40;;;;;;5105172;28;20480;-75
2022/04/27 12:15:39;;;;;;;3.60;3.40;;;15.00;98.20;;;;;;5106409;28;20452;-73
2022/04/27 12:18:07;;;;;;;4.90;4.40;;;15.30;97.80;;;;;;5105511;28;20499;-75
2022/04/27 12:20:38;;;;;;;9.40;3.40;;;15.40;97.90;;;;;;5108497;28;20441;-75
2022/04/27 12:23:08;;;;;;;6.47;3.90;;;15.60;97.60;;;;;;5103305;28;20489;-74
2022/04/27 12:25:40;;;;;;;5.40;4.00;;;15.80;98.10;;;;;;5102717;28;20438;-73
2022/04/27 12:28:15;;;;;;;6.87;4.70;;;15.90;97.00;;;;;;5101639;28;20473;-73
2022/04/27 12:30:51;;;;;;;5.83;5.10;;;15.80;96.90;;;;;;5102825;28;20447;-73
2022/04/27 12:33:22;;;;;;;5.10;4.70;;;15.40;96.90;;;;;;5103447;28;20438;-74
2022/04/27 12:38:55;;;;;;;7.43;4.27;;;15.10;97.40;;;;;;5102108;28;20460;-69
2022/04/27 12:41:34;;;;;;;6.90;5.23;;;15.10;97.10;;;;;;5102276;28;20492;-75
2022/04/27 12:44:05;;;;;;;4.00;3.70;;;15.10;97.50;;;;;;5101209;28;20429;-74
2022/04/27 12:46:57;;;;;;;4.90;4.20;;;15.10;97.20;;;;;;5100917;28;20447;-74
2022/04/27 12:49:26;;;;;;;5.10;4.70;;;15.20;97.60;;;;;;5101139;28;20544;-73
2022/04/27 12:51:55;;;;;;;4.83;4.40;;;15.30;97.40;;;;;;5101780;28;21068;-75
2022/04/27 12:54:33;;;;;;;4.17;3.60;;;15.50;97.20;;;;;;5102399;28;20900;-73
2022/04/27 12:57:02;;;;;;;5.53;5.07;;;15.50;97.70;;;;;;5104262;28;20441;-75
2022/04/27 12:59:32;;;;;;;7.33;4.40;;;15.50;97.00;;;;;;5102804;28;20802;-75
2022/04/27 13:02:03;;;;;;;4.83;4.40;;;15.40;97.60;;;;;;5101988;28;20644;-73
2022/04/27 13:04:31;;;;;;;5.77;5.30;;;15.30;97.10;;;;;;5101877;27;20448;-73
2022/04/27 13:06:59;;;;;;;6.40;4.57;;;15.00;97.30;;;;;;5102008;28;20808;-76
2022/04/27 13:12:14;;;;;;;4.73;4.33;;;14.80;97.20;;;;;;5101007;28;20480;-73
2022/04/27 13:14:44;;;;;;;4.07;3.87;;;14.80;98.00;;;;;;5100845;28;20453;-73
2022/04/27 13:17:12;;;;;;;4.40;4.07;;;14.80;97.60;;;;;;5101182;28;21125;-74
2022/04/27 13:19:41;;;;;;;7.00;4.83;;;14.80;97.20;;;;;;5100570;28;20446;-73
2022/04/27 13:22:08;;;;;;;4.00;3.70;;;15.00;96.80;;;;;;5099980;28;21094;-74
2022/04/27 13:24:36;;;;;;;4.03;3.43;;;15.00;97.00;;;;;;5091241;28;20510;-74
2022/04/27 13:27:23;;;;;;;4.00;3.80;;;15.10;96.70;;;;;;5087884;28;20441;-73
2022/04/27 13:29:52;;;;;;;4.53;4.13;;;15.30;97.00;;;;;;5084261;28;21048;-75